Time;durP1;ratioP1;P1;durP2;ratioP2;P2;SDS_P1;SDS_P2;PMS_P1;PMS_P2;Temp;Humidity;BMP_temperature;BMP_pressure;BME280_temperature;BME280_humidity;BME280_pressure;Samples;Min_cycle;Max_cycle;Signal;HPM_P1;HPM_P2
2021/12/20 00:00:24;;;;;;;14.38;6.40;;;;;;;-12.83;67.45;100089.66;5037028;28;20045;-74
2021/12/20 00:02:57;;;;;;;12.32;6.40;;;;;;;-12.75;67.77;100075.13;5037578;28;20054;-75
2021/12/20 00:05:28;;;;;;;18.30;7.50;;;;;;;-12.61;67.87;100082.91;5037268;28;20045;-75
2021/12/20 00:07:59;;;;;;;18.02;8.15;;;;;;;-12.43;68.03;100077.44;5037046;28;20336;-74
2021/12/20 00:10:30;;;;;;;20.88;8.07;;;;;;;-12.34;68.47;100057.09;5037168;28;20084;-74
2021/12/20 00:13:02;;;;;;;16.30;6.95;;;;;;;-11.90;69.23;100082.91;5036743;28;20287;-72
2021/12/20 00:15:33;;;;;;;13.30;6.68;;;;;;;-11.57;69.68;100085.94;5037048;28;20229;-75
2021/12/20 00:18:04;;;;;;;14.38;6.65;;;;;;;-11.40;69.87;100077.00;5037131;28;20037;-71
2021/12/20 00:20:35;;;;;;;15.20;5.78;;;;;;;-11.18;70.21;100084.34;5037193;28;20116;-75
2021/12/20 00:23:05;;;;;;;12.13;5.15;;;;;;;-11.07;70.63;100081.78;5037066;28;20120;-72
2021/12/20 00:25:36;;;;;;;8.57;4.88;;;;;;;-11.26;70.51;100035.03;5037022;28;20052;-71
2021/12/20 00:28:09;;;;;;;10.98;4.50;;;;;;;-10.91;70.58;100076.06;5037274;28;20306;-71
2021/12/20 00:30:40;;;;;;;10.23;4.68;;;;;;;-10.71;70.37;100084.09;5037050;28;20057;-72
2021/12/20 00:33:10;;;;;;;7.35;4.10;;;;;;;-10.64;70.00;100074.47;5040548;28;20146;-72
2021/12/20 00:35:42;;;;;;;5.93;3.53;;;;;;;-10.64;69.80;100055.94;5040544;28;20107;-73
2021/12/20 00:41:00;;;;;;;7.07;3.72;;;;;;;-10.21;69.65;100063.66;5040490;28;20055;-79
2021/12/20 00:43:32;;;;;;;6.88;3.83;;;;;;;-10.04;69.20;100058.00;5040690;28;20483;-72
2021/12/20 00:46:03;;;;;;;10.02;4.13;;;;;;;-9.85;69.03;100065.09;5040404;28;20232;-72
2021/12/20 00:48:34;;;;;;;6.57;3.67;;;;;;;-9.71;68.05;100058.31;5040536;28;20052;-76
2021/12/20 00:51:04;;;;;;;7.32;3.78;;;;;;;-9.57;67.74;100056.66;5040275;28;20420;-71
2021/12/20 00:53:35;;;;;;;9.13;4.80;;;;;;;-9.58;67.10;100039.75;5040323;28;20055;-71
2021/12/20 00:56:06;;;;;;;12.13;4.78;;;;;;;-9.27;67.04;100056.72;5040202;28;20059;-72
2021/12/20 00:58:39;;;;;;;13.60;5.18;;;;;;;-9.20;66.10;100054.66;5040053;28;20061;-72
2021/12/20 01:01:10;;;;;;;12.43;4.50;;;;;;;-9.13;66.05;100046.63;5040046;28;20101;-72
2021/12/20 01:03:41;;;;;;;10.75;3.80;;;;;;;-9.16;64.85;100031.28;5039913;28;20133;-75
2021/12/20 01:06:12;;;;;;;12.00;3.85;;;;;;;-9.10;64.42;100029.88;5055187;28;20056;-74
2021/12/20 01:08:43;;;;;;;7.80;3.30;;;;;;;-9.02;63.57;100039.66;5059705;28;20068;-74
2021/12/20 01:11:20;;;;;;;7.63;3.15;;;;;;;-9.35;63.68;99973.66;5059720;28;20057;-73
2021/12/20 01:13:53;;;;;;;7.30;3.70;;;;;;;-9.04;63.81;100037.81;5060145;28;20113;-72
2021/12/20 01:16:31;;;;;;;8.50;3.88;;;;;;;-9.20;63.69;100029.34;5059784;28;20075;-73
2021/12/20 01:19:01;;;;;;;7.03;3.63;;;;;;;-9.14;63.90;100014.50;5058353;28;20057;-73
2021/12/20 01:21:33;;;;;;;7.40;3.72;;;;;;;-9.04;63.17;100017.56;5057816;28;20053;-74
2021/12/20 01:24:03;;;;;;;9.43;3.97;;;;;;;-9.16;63.77;100005.97;5059530;28;20103;-73
2021/12/20 01:26:34;;;;;;;7.85;3.70;;;;;;;-8.72;63.80;100025.31;5059430;28;20108;-72
2021/12/20 01:29:06;;;;;;;7.53;3.35;;;;;;;-8.70;62.65;100023.75;5058937;28;20045;-76
2021/12/20 01:31:37;;;;;;;9.35;3.63;;;;;;;-8.62;62.90;100016.59;5059348;28;20282;-72
2021/12/20 01:34:08;;;;;;;7.60;3.60;;;;;;;-8.56;62.65;100010.97;5059314;28;20118;-74
2021/12/20 01:36:39;;;;;;;5.65;3.65;;;;;;;-8.42;62.25;100012.63;5059587;28;20052;-74
2021/12/20 01:39:09;;;;;;;10.07;3.88;;;;;;;-8.42;62.09;99994.03;5059246;28;20331;-71
2021/12/20 01:41:42;;;;;;;6.15;3.80;;;;;;;-8.39;61.60;99992.47;5059020;28;20231;-72
2021/12/20 01:44:15;;;;;;;9.27;3.92;;;;;;;-8.31;61.65;99992.91;5058745;28;20084;-73
2021/12/20 01:46:46;;;;;;;7.03;3.58;;;;;;;-8.26;61.81;99992.38;5050967;28;20051;-72
2021/12/20 01:49:17;;;;;;;6.45;3.58;;;;;;;-8.07;61.54;99999.28;5059004;28;20045;-72
2021/12/20 01:52:02;;;;;;;8.70;3.40;;;;;;;-7.99;61.51;99987.03;5057012;28;20053;-76
2021/12/20 01:54:33;;;;;;;5.47;3.40;;;;;;;-7.90;61.17;99997.66;5058874;28;20044;-73
2021/12/20 01:57:04;;;;;;;8.38;3.35;;;;;;;-7.98;60.86;99963.44;5057277;28;20045;-75
2021/12/20 01:59:42;;;;;;;9.40;4.00;;;;;;;-7.77;61.08;99967.88;5058971;28;20263;-77
2021/12/20 02:02:13;;;;;;;8.38;4.03;;;;;;;-7.38;60.85;99980.06;5058491;28;20051;-72
2021/12/20 02:04:47;;;;;;;7.38;3.63;;;;;;;-7.16;60.53;99976.06;5058250;28;20057;-72
2021/12/20 02:07:34;;;;;;;7.72;3.80;;;;;;;-7.02;60.14;99975.03;5031741;28;20052;-72
2021/12/20 02:10:07;;;;;;;6.10;3.22;;;;;;;-7.15;59.65;99949.84;5026328;28;20059;-79
2021/12/20 02:12:38;;;;;;;8.07;4.22;;;;;;;-7.07;59.68;99971.41;5055190;28;20052;-75
2021/12/20 02:15:11;;;;;;;7.53;3.90;;;;;;;-7.07;59.84;99968.00;5046911;28;20065;-75
2021/12/20 02:17:43;;;;;;;6.22;3.50;;;;;;;-7.06;59.93;99959.56;5047494;28;20247;-72
2021/12/20 02:20:29;;;;;;;10.05;3.50;;;;;;;-6.99;60.45;99954.91;5047106;28;20086;-70
2021/12/20 02:23:01;;;;;;;6.40;3.58;;;;;;;-6.85;61.06;99957.22;5048177;28;20343;-70
2021/12/20 02:25:33;;;;;;;6.57;3.40;;;;;;;-6.83;60.64;99955.63;5048497;28;20049;-71
2021/12/20 02:28:07;;;;;;;7.03;3.75;;;;;;;-6.85;61.06;99934.38;5047172;28;20049;-74
2021/12/20 02:30:52;;;;;;;8.73;3.88;;;;;;;-6.71;60.65;99940.97;5046079;28;20104;-72
2021/12/20 02:39:03;;;;;;;5.18;3.58;;;;;;;-6.80;60.20;99948.16;5047629;28;20033;-70
2021/12/20 02:41:34;;;;;;;7.22;3.40;;;;;;;-6.85;59.95;99926.75;5048112;28;20123;-70
2021/12/20 02:44:06;;;;;;;7.53;3.95;;;;;;;-6.56;59.59;99939.16;5047134;28;20095;-74
2021/12/20 02:46:50;;;;;;;10.88;4.20;;;;;;;-6.58;59.46;99919.56;5045926;28;20061;-74
2021/12/20 02:49:26;;;;;;;7.95;3.85;;;;;;;-6.45;58.89;99931.16;5046338;28;20316;-71
2021/12/20 02:52:02;;;;;;;10.63;3.88;;;;;;;-6.38;58.53;99930.63;5045818;28;20105;-74
2021/12/20 02:54:33;;;;;;;8.82;3.88;;;;;;;-6.42;58.87;99918.56;5053450;28;20048;-71
2021/12/20 02:57:04;;;;;;;13.82;5.05;;;;;;;-6.22;58.72;99922.88;5042664;28;20057;-69
2021/12/20 02:59:35;;;;;;;9.65;4.60;;;;;;;-6.11;58.78;99921.72;5037836;28;20049;-76
2021/12/20 03:02:09;;;;;;;5.85;3.80;;;;;;;-6.02;58.44;99916.16;5038098;28;20292;-78
2021/12/20 03:04:41;;;;;;;8.13;3.72;;;;;;;-6.09;58.48;99904.84;5037880;28;20247;-72
2021/12/20 03:07:21;;;;;;;8.68;3.53;;;;;;;-6.03;58.16;99914.41;5038062;28;20382;-70
2021/12/20 03:09:57;;;;;;;6.55;3.70;;;;;;;-6.07;58.80;99898.13;5037758;28;20056;-68
2021/12/20 03:12:30;;;;;;;8.05;3.47;;;;;;;-6.17;58.68;99864.59;5037574;28;20072;-69
2021/12/20 03:15:11;;;;;;;7.03;3.92;;;;;;;-5.98;58.58;99899.34;5037726;28;20369;-73
2021/12/20 03:17:42;;;;;;;7.30;3.83;;;;;;;-5.94;58.56;99903.75;5051627;28;20047;-71
2021/12/20 03:20:14;;;;;;;9.88;3.53;;;;;;;-6.08;58.32;99882.81;5048970;28;20048;-71
2021/12/20 03:22:47;;;;;;;5.40;3.60;;;;;;;-6.32;58.84;99895.31;5046278;28;20112;-74
2021/12/20 03:25:17;;;;;;;5.55;3.40;;;;;;;-6.35;59.24;99895.19;5037733;28;20076;-70
2021/12/20 03:27:48;;;;;;;7.57;3.85;;;;;;;-6.39;59.55;99898.38;5042955;28;20094;-70
2021/12/20 03:30:19;;;;;;;8.20;3.53;;;;;;;-6.40;59.71;99887.34;5057494;28;20083;-73
2021/12/20 03:32:50;;;;;;;5.97;3.78;;;;;;;-6.14;59.98;99891.06;5037573;28;20053;-71
2021/12/20 03:35:21;;;;;;;7.40;4.10;;;;;;;-6.07;60.60;99893.03;5050607;28;20059;-76
2021/12/20 03:37:53;;;;;;;8.73;4.10;;;;;;;-6.19;60.24;99872.19;5048082;28;20087;-74
2021/12/20 03:40:24;;;;;;;7.00;3.90;;;;;;;-6.34;60.11;99863.84;5047138;28;20280;-70
2021/12/20 03:42:55;;;;;;;7.47;3.95;;;;;;;-6.32;60.42;99891.09;5047347;28;20347;-71
2021/12/20 03:45:25;;;;;;;11.65;4.47;;;;;;;-6.46;60.66;99883.63;5045176;28;20057;-75
2021/12/20 03:47:56;;;;;;;7.80;4.22;;;;;;;-6.53;60.88;99883.38;5045722;28;20057;-77
2021/12/20 03:50:27;;;;;;;10.95;4.30;;;;;;;-6.70;61.05;99851.22;5046051;28;20095;-75
2021/12/20 03:53:00;;;;;;;9.45;4.53;;;;;;;-6.56;60.80;99880.69;5045599;28;20343;-74
2021/12/20 03:55:30;;;;;;;8.45;4.18;;;;;;;-6.60;60.78;99878.81;5045073;28;20080;-71
2021/12/20 03:58:01;;;;;;;9.82;4.50;;;;;;;-6.54;61.39;99871.47;5043870;28;20351;-74
2021/12/20 04:00:32;;;;;;;8.65;4.47;;;;;;;-6.55;61.29;99862.09;5036570;28;20085;-73
2021/12/20 04:03:08;;;;;;;11.63;5.00;;;;;;;-6.52;60.95;99872.41;5036925;28;20069;-72
2021/12/20 04:05:40;;;;;;;15.50;6.47;;;;;;;-6.43;60.89;99868.53;5045826;28;20209;-72
2021/12/20 04:08:12;;;;;;;14.43;5.40;;;;;;;-6.33;60.94;99888.50;5059907;28;20230;-71
2021/12/20 04:10:43;;;;;;;12.93;5.68;;;;;;;-6.42;60.50;99877.91;5060425;28;20068;-72
2021/12/20 04:13:14;;;;;;;15.27;6.80;;;;;;;-6.38;60.92;99877.25;5060590;28;20045;-71
2021/12/20 04:15:45;;;;;;;18.20;7.43;;;;;;;-6.41;60.30;99877.13;5059778;28;20041;-72
2021/12/20 04:18:16;;;;;;;14.38;7.28;;;;;;;-6.54;60.51;99868.94;5060467;28;20045;-72
2021/12/20 04:20:47;;;;;;;16.60;6.55;;;;;;;-6.50;60.42;99875.00;5060541;28;20103;-70
2021/12/20 04:23:19;;;;;;;15.50;6.80;;;;;;;-6.48;60.85;99882.72;5058543;28;20072;-72
2021/12/20 04:25:50;;;;;;;14.50;7.20;;;;;;;-6.46;61.02;99876.00;5056223;28;20095;-75
2021/12/20 04:28:22;;;;;;;17.90;6.47;;;;;;;-6.41;61.23;99879.66;5045573;28;20072;-73
2021/12/20 04:30:53;;;;;;;13.93;6.65;;;;;;;-6.36;61.51;99878.19;5045812;28;20049;-73
2021/12/20 04:33:24;;;;;;;13.32;6.70;;;;;;;-6.32;62.50;99858.03;5046223;28;20076;-71
2021/12/20 04:35:55;;;;;;;14.27;7.68;;;;;;;-6.11;62.22;99870.84;5044940;28;20076;-69
2021/12/20 04:38:29;;;;;;;22.20;10.45;;;;;;;-6.18;62.10;99802.72;5045458;28;20069;-68
2021/12/20 04:41:01;;;;;;;20.73;7.97;;;;;;;-5.57;61.67;99864.59;5045822;28;20156;-73
2021/12/20 04:43:31;;;;;;;17.00;8.50;;;;;;;-5.49;61.44;99868.31;5045986;28;20380;-68
2021/12/20 04:46:02;;;;;;;29.65;13.32;;;;;;;-5.48;61.28;99870.06;5045560;28;20053;-71
2021/12/20 04:48:33;;;;;;;23.83;10.40;;;;;;;-5.36;61.24;99865.47;5044915;28;20112;-70
2021/12/20 04:51:04;;;;;;;17.65;8.70;;;;;;;-5.24;60.88;99881.25;5045238;28;20053;-74
2021/12/20 04:53:36;;;;;;;18.88;9.13;;;;;;;-5.06;60.69;99875.16;5046128;28;20049;-71
2021/12/20 04:56:07;;;;;;;19.55;8.18;;;;;;;-5.03;60.47;99882.94;5045377;28;20060;-76
2021/12/20 04:58:38;;;;;;;20.90;9.13;;;;;;;-5.12;60.15;99874.91;5045556;28;20072;-75
2021/12/20 05:01:09;;;;;;;20.63;9.18;;;;;;;-5.28;60.28;99873.44;5045856;28;20109;-69
2021/12/20 05:03:40;;;;;;;22.25;10.13;;;;;;;-5.45;60.52;99880.38;5045980;28;20254;-75
2021/12/20 05:06:11;;;;;;;23.13;10.75;;;;;;;-5.61;60.88;99888.19;5045442;28;20271;-69
2021/12/20 05:08:49;;;;;;;26.40;11.65;;;;;;;-5.77;61.69;99890.06;5045497;28;20045;-69
2021/12/20 05:11:20;;;;;;;26.00;12.05;;;;;;;-5.94;62.35;99878.31;5044745;28;20068;-69
2021/12/20 05:13:51;;;;;;;28.15;11.90;;;;;;;-5.93;63.01;99905.47;5045919;28;20077;-71
2021/12/20 05:16:22;;;;;;;34.42;13.38;;;;;;;-6.02;63.35;99900.00;5046067;28;20064;-72
2021/12/20 05:18:52;;;;;;;33.78;13.73;;;;;;;-6.01;63.53;99897.56;5045303;28;20053;-69
2021/12/20 05:21:23;;;;;;;32.10;14.43;;;;;;;-6.10;63.84;99899.69;5044856;28;20053;-69
2021/12/20 05:23:55;;;;;;;36.90;15.02;;;;;;;-6.17;63.41;99916.34;5044305;28;20049;-71
2021/12/20 05:26:27;;;;;;;37.08;15.43;;;;;;;-6.21;63.83;99924.66;5044816;28;20053;-68
2021/12/20 05:28:58;;;;;;;31.23;13.95;;;;;;;-6.31;63.71;99919.94;5045666;28;20151;-70
2021/12/20 05:31:29;;;;;;;34.67;14.43;;;;;;;-6.40;64.13;99927.16;5045971;28;20188;-68
2021/12/20 05:34:00;;;;;;;41.97;17.17;;;;;;;-6.45;64.93;99938.78;5043086;28;20109;-69
2021/12/20 05:36:31;;;;;;;46.47;19.33;;;;;;;-6.48;65.22;99936.09;5045117;28;20060;-69
2021/12/20 05:39:04;;;;;;;48.13;18.50;;;;;;;-6.51;66.24;99941.91;5044562;28;20083;-72
2021/12/20 05:41:35;;;;;;;36.70;15.40;;;;;;;-6.53;66.79;99939.28;5028746;28;20471;-75
2021/12/20 05:44:07;;;;;;;38.85;15.45;;;;;;;-6.67;67.06;99926.72;5043860;28;20108;-75
2021/12/20 05:46:38;;;;;;;40.33;15.38;;;;;;;-6.62;67.19;99946.47;5044228;28;20048;-70
2021/12/20 05:49:09;;;;;;;39.70;14.88;;;;;;;-6.70;66.93;99952.88;5044229;28;20100;-79
2021/12/20 05:51:39;;;;;;;30.35;13.90;;;;;;;-6.72;67.48;99959.53;5043498;28;20049;-73
2021/12/20 05:54:12;;;;;;;38.05;15.88;;;;;;;-6.82;67.50;99957.38;5044392;28;20049;-74
2021/12/20 05:56:42;;;;;;;33.08;13.88;;;;;;;-6.93;67.71;99943.28;5044183;28;20057;-70
2021/12/20 05:59:13;;;;;;;30.52;12.95;;;;;;;-6.95;68.56;99954.22;5044429;28;20073;-72
2021/12/20 06:01:44;;;;;;;36.60;13.98;;;;;;;-7.04;68.39;99941.13;5045267;28;20095;-74
2021/12/20 06:04:15;;;;;;;37.53;16.52;;;;;;;-7.07;68.35;99961.25;5039324;28;20343;-74
2021/12/20 06:06:45;;;;;;;62.47;27.70;;;;;;;-7.22;68.59;99975.75;5037443;28;20099;-75
2021/12/20 06:09:18;;;;;;;39.03;18.08;;;;;;;-7.32;69.16;99968.47;5032763;28;20117;-71
2021/12/20 06:11:49;;;;;;;42.70;17.33;;;;;;;-7.41;69.56;99969.75;5039764;28;20061;-73
2021/12/20 06:14:19;;;;;;;80.47;26.30;;;;;;;-7.40;69.82;99961.31;5045440;28;20059;-75
2021/12/20 06:16:50;;;;;;;75.80;25.88;;;;;;;-7.50;70.22;99984.50;5045072;28;20328;-71
2021/12/20 06:19:21;;;;;;;32.10;15.70;;;;;;;-7.68;69.86;99978.50;5045268;28;20088;-70
2021/12/20 06:21:52;;;;;;;35.55;16.08;;;;;;;-7.86;70.27;99968.28;5044195;28;20155;-70
2021/12/20 06:24:25;;;;;;;33.88;14.23;;;;;;;-7.94;70.34;99975.44;5044198;28;20442;-71
2021/12/20 06:26:56;;;;;;;36.05;14.43;;;;;;;-8.05;70.30;99981.63;5044051;28;20080;-75
2021/12/20 06:29:27;;;;;;;31.48;14.65;;;;;;;-8.13;70.54;99982.91;5043636;28;20073;-72
2021/12/20 06:31:58;;;;;;;34.72;14.45;;;;;;;-8.17;71.11;99986.06;5044553;28;20596;-72
2021/12/20 06:34:28;;;;;;;36.33;15.20;;;;;;;-8.27;71.49;99985.53;5044773;28;20049;-71
2021/12/20 06:37:03;;;;;;;35.75;15.32;;;;;;;-8.29;71.89;99997.25;5043686;28;20083;-72
2021/12/20 06:39:37;;;;;;;33.90;14.80;;;;;;;-8.41;72.35;99991.59;5044717;28;20077;-73
2021/12/20 06:42:08;;;;;;;35.58;14.43;;;;;;;-8.37;72.81;100008.66;5044625;28;20056;-73
2021/12/20 06:44:39;;;;;;;36.38;15.57;;;;;;;-8.42;73.13;99996.56;5044943;28;20239;-72
2021/12/20 06:47:10;;;;;;;36.85;14.85;;;;;;;-8.54;72.95;99999.28;5045146;28;20065;-74
2021/12/20 06:49:41;;;;;;;31.73;14.68;;;;;;;-8.61;73.30;99999.72;5044697;28;20049;-75
2021/12/20 06:52:11;;;;;;;43.88;18.08;;;;;;;-8.73;73.61;100003.34;5043225;28;20049;-75
2021/12/20 06:54:44;;;;;;;49.00;19.45;;;;;;;-8.90;73.61;99993.91;5043511;28;20079;-73
2021/12/20 06:57:16;;;;;;;48.22;19.63;;;;;;;-8.86;73.56;100005.97;5044131;28;20065;-70
2021/12/20 06:59:46;;;;;;;59.95;25.08;;;;;;;-8.95;73.68;100015.56;5044150;28;20112;-72
2021/12/20 07:02:17;;;;;;;58.05;22.35;;;;;;;-9.08;73.60;100008.94;5043112;28;20045;-73
2021/12/20 07:04:48;;;;;;;45.92;17.27;;;;;;;-9.16;73.97;100017.72;5043288;28;20262;-73
2021/12/20 07:07:19;;;;;;;36.10;13.70;;;;;;;-9.26;74.28;100013.81;5043096;28;20363;-70
2021/12/20 07:09:51;;;;;;;32.00;13.63;;;;;;;-9.51;74.09;100001.34;5044713;28;20369;-74
2021/12/20 07:12:22;;;;;;;30.00;13.05;;;;;;;-9.63;74.23;99993.94;5043550;28;20061;-73
2021/12/20 07:14:53;;;;;;;32.03;12.63;;;;;;;-9.70;73.85;100008.66;5043383;28;20053;-74
2021/12/20 07:17:24;;;;;;;74.65;32.53;;;;;;;-10.00;73.92;100003.50;5042821;28;20061;-71
2021/12/20 07:19:54;;;;;;;192.65;68.90;;;;;;;-10.16;74.33;100021.00;5043832;28;20037;-70
2021/12/20 07:22:25;;;;;;;95.90;40.25;;;;;;;-10.30;74.73;100010.09;5043566;28;20041;-70
2021/12/20 07:24:58;;;;;;;89.53;35.05;;;;;;;-10.42;75.08;100023.69;5044965;28;20056;-73
2021/12/20 07:27:30;;;;;;;171.13;75.53;;;;;;;-10.57;75.06;100020.19;5042604;28;20081;-75
2021/12/20 07:30:01;;;;;;;173.20;68.75;;;;;;;-10.83;75.47;100008.47;5043193;28;20263;-73
2021/12/20 07:32:32;;;;;;;119.10;50.13;;;;;;;-11.00;75.62;100025.03;5042899;28;20072;-70
2021/12/20 07:35:03;;;;;;;46.63;22.20;;;;;;;-11.12;76.02;100029.28;5043146;28;20081;-72
2021/12/20 07:37:33;;;;;;;34.67;16.80;;;;;;;-11.21;76.68;100028.66;5042401;28;20079;-71
2021/12/20 07:40:07;;;;;;;34.78;17.13;;;;;;;-11.19;76.98;100027.13;5042800;28;20326;-71
2021/12/20 07:42:38;;;;;;;54.05;23.58;;;;;;;-11.21;76.99;100029.53;5046633;28;20112;-74
2021/12/20 07:45:10;;;;;;;106.80;42.33;;;;;;;-11.41;77.09;100009.69;5048772;28;20340;-73
2021/12/20 07:47:49;;;;;;;33.20;17.33;;;;;;;-11.44;77.31;100028.00;5047122;28;20305;-70
2021/12/20 07:50:22;;;;;;;38.55;20.30;;;;;;;-11.58;77.47;100023.69;5047465;28;20071;-73
2021/12/20 07:52:52;;;;;;;38.28;20.10;;;;;;;-11.58;77.53;100036.28;5047599;28;20049;-74
2021/12/20 07:55:25;;;;;;;26.77;14.02;;;;;;;-11.68;77.95;100034.81;5047397;28;20087;-73
2021/12/20 07:57:57;;;;;;;32.88;18.08;;;;;;;-11.70;77.83;100040.50;5046901;28;20119;-72
2021/12/20 08:00:29;;;;;;;34.17;16.13;;;;;;;-11.82;77.90;100031.34;5047187;28;20331;-71
2021/12/20 08:03:00;;;;;;;31.33;15.15;;;;;;;-11.88;77.79;100040.16;5047721;28;20049;-74
2021/12/20 08:05:32;;;;;;;33.50;17.15;;;;;;;-11.90;78.01;100037.53;5047473;28;20088;-71
2021/12/20 08:08:03;;;;;;;123.50;43.05;;;;;;;-11.92;78.10;100039.06;5047583;28;20586;-73
2021/12/20 08:10:36;;;;;;;186.32;70.82;;;;;;;-11.92;77.98;100051.66;5047581;28;20530;-72
2021/12/20 08:13:08;;;;;;;77.70;35.90;;;;;;;-11.98;78.16;100044.56;5047431;28;20403;-74
2021/12/20 08:15:39;;;;;;;47.20;21.77;;;;;;;-11.91;78.28;100055.94;5047612;28;20076;-72
2021/12/20 08:18:10;;;;;;;41.10;17.90;;;;;;;-11.92;78.10;100054.19;5047259;28;20056;-72
2021/12/20 08:20:41;;;;;;;50.22;20.27;;;;;;;-11.91;78.35;100055.06;5047463;28;20063;-72
2021/12/20 08:23:12;;;;;;;113.47;42.25;;;;;;;-12.07;77.94;100038.03;5047586;28;20044;-74
2021/12/20 08:25:45;;;;;;;94.60;35.65;;;;;;;-12.16;77.09;100064.28;5047320;28;20046;-71
2021/12/20 08:28:15;;;;;;;55.13;20.95;;;;;;;-12.32;76.65;100065.66;5047454;28;20048;-72
2021/12/20 08:30:46;;;;;;;36.70;16.25;;;;;;;-12.47;76.63;100065.44;5047736;28;20076;-71
2021/12/20 08:33:17;;;;;;;106.40;34.72;;;;;;;-12.55;76.92;100067.41;5044944;28;20328;-73
2021/12/20 08:35:49;;;;;;;104.00;34.70;;;;;;;-12.63;76.88;100071.88;5045523;28;20056;-73
2021/12/20 08:38:21;;;;;;;70.75;27.27;;;;;;;-12.72;76.88;100063.66;5046356;28;20068;-71
2021/12/20 08:40:53;;;;;;;36.28;15.13;;;;;;;-12.79;77.17;100063.13;5045300;28;20049;-76
2021/12/20 08:43:24;;;;;;;30.10;13.02;;;;;;;-12.91;77.75;100055.53;5045440;28;20068;-73
2021/12/20 08:45:56;;;;;;;26.08;10.45;;;;;;;-12.92;78.31;100058.84;5045265;28;20056;-73
2021/12/20 08:48:27;;;;;;;18.52;8.68;;;;;;;-12.88;78.33;100065.81;5045251;28;20096;-73
2021/12/20 08:50:58;;;;;;;20.48;9.80;;;;;;;-12.87;78.50;100072.63;5045647;28;20084;-73
2021/12/20 08:53:28;;;;;;;21.85;9.38;;;;;;;-12.86;78.71;100064.28;5044073;28;20048;-72
2021/12/20 08:56:01;;;;;;;30.52;11.23;;;;;;;-12.94;78.70;100040.22;5045737;28;20302;-72
2021/12/20 08:58:32;;;;;;;24.05;10.38;;;;;;;-12.90;78.54;100064.81;5044646;28;20045;-74
2021/12/20 09:01:03;;;;;;;33.70;13.27;;;;;;;-13.19;78.71;100038.44;5044714;28;20317;-75
2021/12/20 09:03:34;;;;;;;25.42;11.77;;;;;;;-12.98;78.79;100068.44;5044838;28;20049;-74
2021/12/20 09:06:05;;;;;;;23.30;10.70;;;;;;;-13.08;78.27;100056.81;5045183;28;20041;-72
2021/12/20 09:08:35;;;;;;;28.90;11.43;;;;;;;-13.15;78.16;100065.56;5044422;28;20065;-71
2021/12/20 09:11:08;;;;;;;105.45;25.98;;;;;;;-13.39;77.95;100038.63;5045017;28;20053;-72
2021/12/20 09:13:38;;;;;;;460.05;86.88;;;;;;;-13.31;78.14;100072.75;5044554;28;20037;-74
2021/12/20 09:16:09;;;;;;;294.17;63.45;;;;;;;-13.38;78.04;100071.41;5044671;28;20084;-74
2021/12/20 09:18:40;;;;;;;294.13;64.43;;;;;;;-13.38;78.33;100060.47;5044790;28;20057;-73
2021/12/20 09:21:11;;;;;;;285.13;62.65;;;;;;;-13.34;78.49;100067.50;5045253;28;20049;-73
2021/12/20 09:23:42;;;;;;;268.17;68.93;;;;;;;-13.35;78.41;100051.56;5044580;28;20047;-73
2021/12/20 09:26:16;;;;;;;113.75;36.17;;;;;;;-13.33;78.42;100054.16;5044669;28;20090;-74
2021/12/20 09:28:46;;;;;;;79.65;29.02;;;;;;;-13.47;78.23;100065.72;5044150;28;20047;-73
2021/12/20 09:31:17;;;;;;;52.67;21.58;;;;;;;-13.63;78.35;100046.06;5043665;28;20338;-72
2021/12/20 09:33:48;;;;;;;25.33;11.95;;;;;;;-13.58;78.81;100067.41;5044602;28;20050;-73
2021/12/20 09:36:19;;;;;;;27.52;12.25;;;;;;;-13.65;79.01;100055.16;5044223;28;20047;-75
2021/12/20 09:38:49;;;;;;;36.25;14.82;;;;;;;-13.60;78.79;100068.03;5044802;28;20051;-72
2021/12/20 09:41:59;;;;;;;115.72;39.22;;;;;;;-13.56;78.64;100068.41;5042318;28;20049;-74
2021/12/20 09:44:23;;;;;;;85.57;31.58;;;;;;;-13.58;78.55;100062.38;5043192;28;20348;-73
2021/12/20 09:47:00;;;;;;;64.90;25.75;;;;;;;-13.64;78.16;100066.94;5044200;28;20346;-73
2021/12/20 09:49:33;;;;;;;19.00;9.68;;;;;;;-13.63;78.65;100071.19;5044576;28;20389;-74
2021/12/20 09:52:04;;;;;;;19.20;8.98;;;;;;;-13.64;78.74;100061.06;5042698;28;20155;-74
2021/12/20 09:54:35;;;;;;;14.15;7.85;;;;;;;-13.62;78.75;100060.41;5044493;28;20056;-72
2021/12/20 09:57:12;;;;;;;73.68;22.05;;;;;;;-13.52;79.21;100055.31;5043457;28;20053;-72
2021/12/20 09:59:44;;;;;;;88.97;24.27;;;;;;;-13.24;79.10;100059.84;5044108;28;20057;-72
2021/12/20 10:02:17;;;;;;;70.53;22.25;;;;;;;-13.17;78.67;100057.03;5043420;28;20051;-72
2021/12/20 10:04:49;;;;;;;60.45;17.98;;;;;;;-13.18;78.31;100040.19;5044105;28;20047;-72
2021/12/20 10:07:24;;;;;;;40.42;13.25;;;;;;;-13.12;78.23;100050.69;5045539;28;20084;-76
2021/12/20 10:09:55;;;;;;;18.67;7.32;;;;;;;-13.27;78.11;100029.50;5045633;28;20053;-72
2021/12/20 10:12:28;;;;;;;30.70;9.98;;;;;;;-13.00;78.17;100054.84;5042533;28;20064;-73
2021/12/20 10:15:05;;;;;;;12.95;5.45;;;;;;;-12.84;78.11;100056.09;5042951;28;20049;-76
2021/12/20 10:17:53;;;;;;;5.82;4.50;;;;;;;-12.82;77.75;100051.19;5042150;28;20080;-74
2021/12/20 10:20:27;;;;;;;6.47;4.50;;;;;;;-12.85;77.52;100058.53;5042966;28;20247;-71
2021/12/20 10:23:12;;;;;;;8.50;4.68;;;;;;;-12.86;77.18;100061.78;5043547;28;20079;-76
2021/12/20 10:25:44;;;;;;;10.82;5.35;;;;;;;-12.85;76.69;100061.03;5043299;28;20049;-73
2021/12/20 10:28:19;;;;;;;22.45;7.97;;;;;;;-13.17;76.54;100009.25;5044382;28;20072;-75
2021/12/20 10:30:53;;;;;;;19.83;8.55;;;;;;;-12.95;76.11;100048.53;5042858;28;20059;-70
2021/12/20 10:33:26;;;;;;;34.05;11.48;;;;;;;-12.91;76.73;100050.50;5043354;28;20053;-74
2021/12/20 10:35:59;;;;;;;27.98;10.63;;;;;;;-12.83;77.03;100054.44;5043730;28;20841;-76
2021/12/20 10:38:37;;;;;;;29.83;11.23;;;;;;;-12.79;76.54;100051.41;5042556;28;20055;-73
2021/12/20 10:41:12;;;;;;;32.85;10.27;;;;;;;-12.68;76.84;100048.03;5043638;28;20049;-73
2021/12/20 10:43:50;;;;;;;24.02;8.50;;;;;;;-12.75;76.39;100047.44;5044428;28;20073;-74
2021/12/20 10:46:23;;;;;;;19.63;6.97;;;;;;;-12.93;76.10;100041.97;5043432;28;20053;-72
2021/12/20 10:49:01;;;;;;;24.63;9.15;;;;;;;-13.07;76.15;100034.31;5041006;28;20045;-73
2021/12/20 10:51:34;;;;;;;20.10;8.23;;;;;;;-13.10;75.81;100054.22;5042569;28;20072;-74
2021/12/20 10:54:10;;;;;;;19.27;8.52;;;;;;;-13.34;76.09;100028.16;5043116;28;20087;-71
2021/12/20 10:56:48;;;;;;;139.68;29.17;;;;;;;-13.21;76.49;100064.22;5042067;28;20088;-73
2021/12/20 10:59:23;;;;;;;331.65;65.65;;;;;;;-13.27;76.66;100062.19;5042164;28;20067;-71
2021/12/20 11:02:47;;;;;;;343.05;68.15;;;;;;;-13.37;76.75;100062.25;5042679;28;20049;-76
2021/12/20 11:05:01;;;;;;;179.50;41.22;;;;;;;-13.30;77.35;100069.50;5042314;28;20047;-71
2021/12/20 11:10:32;;;;;;;118.90;31.45;;;;;;;-13.93;77.65;99940.03;4996231;28;20067;-72
2021/12/20 11:13:16;;;;;;;86.40;24.73;;;;;;;-13.42;77.07;100068.59;5042751;28;20049;-75
2021/12/20 11:15:49;;;;;;;58.38;20.00;;;;;;;-13.70;76.88;100066.50;5041090;28;20057;-71
2021/12/20 11:18:20;;;;;;;35.85;13.00;;;;;;;-13.86;76.62;100069.47;5043025;28;20080;-72
2021/12/20 11:21:14;;;;;;;34.70;12.45;;;;;;;-13.98;76.89;100073.53;5041946;28;20049;-72
2021/12/20 11:23:49;;;;;;;33.05;14.23;;;;;;;-13.89;77.43;100073.38;5043377;28;20049;-72
2021/12/20 11:26:21;;;;;;;39.58;14.25;;;;;;;-13.79;77.91;100070.81;5042770;28;20041;-73
2021/12/20 11:28:52;;;;;;;43.80;15.68;;;;;;;-13.63;78.34;100073.72;5043569;28;20301;-75
2021/12/20 11:31:25;;;;;;;62.60;20.17;;;;;;;-13.60;77.74;100081.50;5042652;28;20391;-74
2021/12/20 11:33:57;;;;;;;65.95;24.25;;;;;;;-13.71;77.89;100054.69;5043119;28;20053;-71
2021/12/20 11:36:28;;;;;;;66.63;23.10;;;;;;;-13.61;77.49;100076.34;5043040;28;20049;-74
2021/12/20 11:39:00;;;;;;;51.90;19.15;;;;;;;-13.72;77.05;100086.47;5042816;28;20287;-72
2021/12/20 11:41:32;;;;;;;30.23;11.60;;;;;;;-13.83;76.79;100063.78;5042043;28;20088;-76
2021/12/20 11:44:05;;;;;;;18.77;8.52;;;;;;;-13.97;76.28;100076.19;5042567;28;20339;-72
2021/12/20 11:46:48;;;;;;;12.70;6.35;;;;;;;-13.98;75.97;100093.63;5041347;28;20049;-76
2021/12/20 11:49:22;;;;;;;9.25;5.32;;;;;;;-13.96;76.09;100092.97;5043174;28;20053;-73